sensor_id;sensor_type;location;lat;lon;timestamp;P1;durP1;ratioP1;P2;durP2;ratioP2
68250;SDS011;55066;51.560;4.642;2024-01-30T00:01:21;21.25;;;7.28;;
68250;SDS011;55066;51.560;4.642;2024-01-30T00:03:47;20.37;;;7.03;;
68250;SDS011;55066;51.560;4.642;2024-01-30T00:06:12;19.67;;;7.00;;
68250;SDS011;55066;51.560;4.642;2024-01-30T00:08:38;17.50;;;6.97;;
68250;SDS011;55066;51.560;4.642;2024-01-30T00:11:03;18.50;;;7.85;;
68250;SDS011;55066;51.560;4.642;2024-01-30T00:13:29;15.57;;;7.03;;
68250;SDS011;55066;51.560;4.642;2024-01-30T00:15:54;18.53;;;7.10;;
68250;SDS011;55066;51.560;4.642;2024-01-30T00:18:20;17.27;;;7.27;;
68250;SDS011;55066;51.560;4.642;2024-01-30T00:20:45;17.17;;;7.35;;
68250;SDS011;55066;51.560;4.642;2024-01-30T00:23:10;15.83;;;7.27;;
68250;SDS011;55066;51.560;4.642;2024-01-30T00:25:36;16.70;;;7.23;;
68250;SDS011;55066;51.560;4.642;2024-01-30T00:28:01;16.80;;;7.07;;
68250;SDS011;55066;51.560;4.642;2024-01-30T00:30:27;17.95;;;7.18;;
68250;SDS011;55066;51.560;4.642;2024-01-30T00:32:53;16.48;;;6.95;;
68250;SDS011;55066;51.560;4.642;2024-01-30T00:35:19;18.10;;;7.17;;
68250;SDS011;55066;51.560;4.642;2024-01-30T00:37:44;21.15;;;7.95;;
68250;SDS011;55066;51.560;4.642;2024-01-30T00:40:10;16.33;;;7.50;;
68250;SDS011;55066;51.560;4.642;2024-01-30T00:42:41;20.50;;;6.95;;
68250;SDS011;55066;51.560;4.642;2024-01-30T00:45:11;19.20;;;7.10;;
68250;SDS011;55066;51.560;4.642;2024-01-30T00:47:37;21.40;;;7.35;;
68250;SDS011;55066;51.560;4.642;2024-01-30T00:50:03;18.10;;;7.13;;
68250;SDS011;55066;51.560;4.642;2024-01-30T00:52:28;16.33;;;7.00;;
68250;SDS011;55066;51.560;4.642;2024-01-30T00:54:54;18.50;;;7.00;;
68250;SDS011;55066;51.560;4.642;2024-01-30T00:57:19;15.88;;;6.38;;
68250;SDS011;55066;51.560;4.642;2024-01-30T00:59:45;15.40;;;6.37;;
68250;SDS011;55066;51.560;4.642;2024-01-30T01:02:10;15.23;;;7.03;;
68250;SDS011;55066;51.560;4.642;2024-01-30T01:04:36;20.83;;;7.03;;
68250;SDS011;55066;51.560;4.642;2024-01-30T01:07:01;16.73;;;6.83;;
68250;SDS011;55066;51.560;4.642;2024-01-30T01:09:26;15.32;;;6.82;;
68250;SDS011;55066;51.560;4.642;2024-01-30T01:11:52;15.93;;;6.97;;
68250;SDS011;55066;51.560;4.642;2024-01-30T01:14:17;16.13;;;6.73;;
68250;SDS011;55066;51.560;4.642;2024-01-30T01:16:43;17.27;;;7.03;;
68250;SDS011;55066;51.560;4.642;2024-01-30T01:19:08;18.10;;;6.57;;
68250;SDS011;55066;51.560;4.642;2024-01-30T01:21:34;18.77;;;6.85;;
68250;SDS011;55066;51.560;4.642;2024-01-30T01:24:00;13.88;;;5.53;;
68250;SDS011;55066;51.560;4.642;2024-01-30T01:26:25;18.77;;;6.93;;
68250;SDS011;55066;51.560;4.642;2024-01-30T01:28:51;15.97;;;6.67;;
68250;SDS011;55066;51.560;4.642;2024-01-30T01:31:16;12.77;;;5.33;;
68250;SDS011;55066;51.560;4.642;2024-01-30T01:33:42;15.23;;;6.90;;
68250;SDS011;55066;51.560;4.642;2024-01-30T01:36:08;14.60;;;6.40;;
68250;SDS011;55066;51.560;4.642;2024-01-30T01:38:33;15.47;;;6.10;;
68250;SDS011;55066;51.560;4.642;2024-01-30T01:40:59;15.30;;;6.05;;
68250;SDS011;55066;51.560;4.642;2024-01-30T01:43:24;20.35;;;6.07;;
68250;SDS011;55066;51.560;4.642;2024-01-30T01:45:49;14.73;;;5.80;;
68250;SDS011;55066;51.560;4.642;2024-01-30T01:48:15;16.77;;;6.40;;
68250;SDS011;55066;51.560;4.642;2024-01-30T01:50:41;14.27;;;5.80;;
68250;SDS011;55066;51.560;4.642;2024-01-30T01:53:07;16.07;;;6.13;;
68250;SDS011;55066;51.560;4.642;2024-01-30T01:55:33;13.13;;;6.65;;
68250;SDS011;55066;51.560;4.642;2024-01-30T01:58:00;16.98;;;6.80;;
68250;SDS011;55066;51.560;4.642;2024-01-30T02:00:26;16.17;;;6.18;;
68250;SDS011;55066;51.560;4.642;2024-01-30T02:02:52;18.80;;;5.70;;
68250;SDS011;55066;51.560;4.642;2024-01-30T02:05:19;16.13;;;6.50;;
68250;SDS011;55066;51.560;4.642;2024-01-30T02:07:46;18.02;;;6.65;;
68250;SDS011;55066;51.560;4.642;2024-01-30T02:10:11;14.47;;;6.10;;
68250;SDS011;55066;51.560;4.642;2024-01-30T02:12:37;15.27;;;6.15;;
68250;SDS011;55066;51.560;4.642;2024-01-30T02:15:03;15.80;;;6.77;;
68250;SDS011;55066;51.560;4.642;2024-01-30T02:17:30;14.88;;;6.25;;
68250;SDS011;55066;51.560;4.642;2024-01-30T02:19:55;12.60;;;5.70;;
68250;SDS011;55066;51.560;4.642;2024-01-30T02:22:21;13.63;;;6.10;;
68250;SDS011;55066;51.560;4.642;2024-01-30T02:24:47;14.68;;;6.10;;
68250;SDS011;55066;51.560;4.642;2024-01-30T02:27:13;14.77;;;5.93;;
68250;SDS011;55066;51.560;4.642;2024-01-30T02:29:38;13.40;;;5.93;;
68250;SDS011;55066;51.560;4.642;2024-01-30T02:32:03;13.43;;;5.80;;
68250;SDS011;55066;51.560;4.642;2024-01-30T02:34:30;15.20;;;5.68;;
68250;SDS011;55066;51.560;4.642;2024-01-30T02:36:56;16.03;;;6.17;;
68250;SDS011;55066;51.560;4.642;2024-01-30T02:39:21;14.52;;;5.78;;
68250;SDS011;55066;51.560;4.642;2024-01-30T02:41:47;15.67;;;6.43;;
68250;SDS011;55066;51.560;4.642;2024-01-30T02:44:12;17.37;;;6.30;;
68250;SDS011;55066;51.560;4.642;2024-01-30T02:46:37;14.97;;;5.47;;
68250;SDS011;55066;51.560;4.642;2024-01-30T02:49:03;17.53;;;6.63;;
68250;SDS011;55066;51.560;4.642;2024-01-30T02:51:28;14.70;;;6.18;;
68250;SDS011;55066;51.560;4.642;2024-01-30T02:53:54;15.27;;;5.97;;
68250;SDS011;55066;51.560;4.642;2024-01-30T02:56:19;18.07;;;6.03;;
68250;SDS011;55066;51.560;4.642;2024-01-30T02:58:44;15.67;;;6.00;;
68250;SDS011;55066;51.560;4.642;2024-01-30T03:01:10;13.97;;;5.77;;
68250;SDS011;55066;51.560;4.642;2024-01-30T03:03:35;16.27;;;6.43;;
68250;SDS011;55066;51.560;4.642;2024-01-30T03:06:01;16.27;;;5.77;;
68250;SDS011;55066;51.560;4.642;2024-01-30T03:08:27;13.52;;;5.95;;
68250;SDS011;55066;51.560;4.642;2024-01-30T03:10:53;16.40;;;5.93;;
68250;SDS011;55066;51.560;4.642;2024-01-30T03:13:18;13.18;;;5.13;;
68250;SDS011;55066;51.560;4.642;2024-01-30T03:15:44;14.30;;;5.63;;
68250;SDS011;55066;51.560;4.642;2024-01-30T03:18:10;17.15;;;6.20;;
68250;SDS011;55066;51.560;4.642;2024-01-30T03:20:35;15.50;;;6.45;;
68250;SDS011;55066;51.560;4.642;2024-01-30T03:23:00;14.87;;;6.00;;
68250;SDS011;55066;51.560;4.642;2024-01-30T03:25:26;13.60;;;5.80;;
68250;SDS011;55066;51.560;4.642;2024-01-30T03:27:51;13.70;;;5.93;;
68250;SDS011;55066;51.560;4.642;2024-01-30T03:30:17;13.50;;;5.60;;
68250;SDS011;55066;51.560;4.642;2024-01-30T03:32:43;15.68;;;5.55;;
68250;SDS011;55066;51.560;4.642;2024-01-30T03:35:09;16.83;;;6.05;;
68250;SDS011;55066;51.560;4.642;2024-01-30T03:37:35;13.60;;;5.50;;
68250;SDS011;55066;51.560;4.642;2024-01-30T03:40:01;16.83;;;6.43;;
68250;SDS011;55066;51.560;4.642;2024-01-30T03:42:27;14.27;;;5.83;;
68250;SDS011;55066;51.560;4.642;2024-01-30T03:44:53;16.05;;;5.43;;
68250;SDS011;55066;51.560;4.642;2024-01-30T03:47:18;13.87;;;5.80;;
68250;SDS011;55066;51.560;4.642;2024-01-30T03:49:45;13.88;;;5.43;;
68250;SDS011;55066;51.560;4.642;2024-01-30T03:52:11;16.97;;;5.83;;
68250;SDS011;55066;51.560;4.642;2024-01-30T03:54:36;14.05;;;5.90;;
68250;SDS011;55066;51.560;4.642;2024-01-30T03:57:01;13.47;;;5.77;;
68250;SDS011;55066;51.560;4.642;2024-01-30T03:59:27;12.70;;;5.87;;
68250;SDS011;55066;51.560;4.642;2024-01-30T04:01:53;14.63;;;6.10;;
68250;SDS011;55066;51.560;4.642;2024-01-30T04:04:18;14.43;;;5.50;;
68250;SDS011;55066;51.560;4.642;2024-01-30T04:06:44;13.88;;;5.57;;
68250;SDS011;55066;51.560;4.642;2024-01-30T04:09:10;14.82;;;5.78;;
68250;SDS011;55066;51.560;4.642;2024-01-30T04:11:36;15.18;;;5.90;;
68250;SDS011;55066;51.560;4.642;2024-01-30T04:14:02;13.43;;;5.47;;
68250;SDS011;55066;51.560;4.642;2024-01-30T04:16:27;12.30;;;4.82;;
68250;SDS011;55066;51.560;4.642;2024-01-30T04:18:52;13.70;;;5.67;;
68250;SDS011;55066;51.560;4.642;2024-01-30T04:21:18;16.80;;;6.50;;
68250;SDS011;55066;51.560;4.642;2024-01-30T04:23:45;16.40;;;5.93;;
68250;SDS011;55066;51.560;4.642;2024-01-30T04:26:11;14.00;;;5.30;;
68250;SDS011;55066;51.560;4.642;2024-01-30T04:28:36;15.65;;;5.90;;
68250;SDS011;55066;51.560;4.642;2024-01-30T04:31:02;13.27;;;5.63;;
68250;SDS011;55066;51.560;4.642;2024-01-30T04:33:27;14.90;;;5.43;;
68250;SDS011;55066;51.560;4.642;2024-01-30T04:35:53;13.50;;;5.50;;
68250;SDS011;55066;51.560;4.642;2024-01-30T04:38:18;14.77;;;5.47;;
68250;SDS011;55066;51.560;4.642;2024-01-30T04:40:43;15.37;;;5.77;;
68250;SDS011;55066;51.560;4.642;2024-01-30T04:43:09;14.67;;;5.67;;
68250;SDS011;55066;51.560;4.642;2024-01-30T04:45:34;14.65;;;5.68;;
68250;SDS011;55066;51.560;4.642;2024-01-30T04:48:00;16.95;;;5.75;;
68250;SDS011;55066;51.560;4.642;2024-01-30T04:50:25;14.83;;;5.87;;
68250;SDS011;55066;51.560;4.642;2024-01-30T04:52:51;13.23;;;5.50;;
68250;SDS011;55066;51.560;4.642;2024-01-30T04:55:17;14.93;;;6.17;;
68250;SDS011;55066;51.560;4.642;2024-01-30T04:57:43;13.70;;;5.70;;
68250;SDS011;55066;51.560;4.642;2024-01-30T05:00:08;15.18;;;5.70;;
68250;SDS011;55066;51.560;4.642;2024-01-30T05:02:34;13.77;;;6.27;;
68250;SDS011;55066;51.560;4.642;2024-01-30T05:05:00;13.10;;;5.25;;
68250;SDS011;55066;51.560;4.642;2024-01-30T05:07:25;24.00;;;6.13;;
68250;SDS011;55066;51.560;4.642;2024-01-30T05:09:51;13.57;;;6.00;;
68250;SDS011;55066;51.560;4.642;2024-01-30T05:12:17;13.93;;;6.10;;
68250;SDS011;55066;51.560;4.642;2024-01-30T05:14:42;20.33;;;5.57;;
68250;SDS011;55066;51.560;4.642;2024-01-30T05:17:08;14.25;;;5.50;;
68250;SDS011;55066;51.560;4.642;2024-01-30T05:19:35;13.00;;;5.93;;
68250;SDS011;55066;51.560;4.642;2024-01-30T05:22:00;15.85;;;5.82;;
68250;SDS011;55066;51.560;4.642;2024-01-30T05:24:26;12.00;;;5.37;;
68250;SDS011;55066;51.560;4.642;2024-01-30T05:26:51;14.47;;;5.83;;
68250;SDS011;55066;51.560;4.642;2024-01-30T05:29:17;12.57;;;5.43;;
68250;SDS011;55066;51.560;4.642;2024-01-30T05:31:42;12.10;;;5.60;;
68250;SDS011;55066;51.560;4.642;2024-01-30T05:34:07;15.70;;;5.50;;
68250;SDS011;55066;51.560;4.642;2024-01-30T05:36:34;12.68;;;5.47;;
68250;SDS011;55066;51.560;4.642;2024-01-30T05:38:59;14.10;;;6.00;;
68250;SDS011;55066;51.560;4.642;2024-01-30T05:41:25;14.57;;;5.53;;
68250;SDS011;55066;51.560;4.642;2024-01-30T05:43:54;14.02;;;5.50;;
68250;SDS011;55066;51.560;4.642;2024-01-30T05:46:19;12.20;;;5.15;;
68250;SDS011;55066;51.560;4.642;2024-01-30T05:48:45;11.13;;;5.00;;
68250;SDS011;55066;51.560;4.642;2024-01-30T05:51:10;14.40;;;5.63;;
68250;SDS011;55066;51.560;4.642;2024-01-30T05:53:36;15.07;;;6.03;;
68250;SDS011;55066;51.560;4.642;2024-01-30T05:56:01;15.68;;;5.57;;
68250;SDS011;55066;51.560;4.642;2024-01-30T05:58:27;12.80;;;5.37;;
68250;SDS011;55066;51.560;4.642;2024-01-30T06:00:53;18.42;;;5.10;;
68250;SDS011;55066;51.560;4.642;2024-01-30T06:03:18;15.50;;;5.80;;
68250;SDS011;55066;51.560;4.642;2024-01-30T06:05:44;13.23;;;5.83;;
68250;SDS011;55066;51.560;4.642;2024-01-30T06:08:09;16.63;;;5.72;;
68250;SDS011;55066;51.560;4.642;2024-01-30T06:10:35;15.83;;;5.30;;
68250;SDS011;55066;51.560;4.642;2024-01-30T06:13:00;12.90;;;5.07;;
68250;SDS011;55066;51.560;4.642;2024-01-30T06:15:26;12.57;;;5.15;;
68250;SDS011;55066;51.560;4.642;2024-01-30T06:17:51;17.60;;;6.00;;
68250;SDS011;55066;51.560;4.642;2024-01-30T06:20:17;13.00;;;5.23;;
68250;SDS011;55066;51.560;4.642;2024-01-30T06:22:43;14.77;;;5.80;;
68250;SDS011;55066;51.560;4.642;2024-01-30T06:25:08;13.43;;;5.70;;
68250;SDS011;55066;51.560;4.642;2024-01-30T06:27:37;17.27;;;5.70;;
68250;SDS011;55066;51.560;4.642;2024-01-30T06:30:03;13.63;;;5.17;;
68250;SDS011;55066;51.560;4.642;2024-01-30T06:32:29;12.65;;;5.68;;
68250;SDS011;55066;51.560;4.642;2024-01-30T06:34:59;16.88;;;5.75;;
68250;SDS011;55066;51.560;4.642;2024-01-30T06:37:28;12.70;;;5.28;;
68250;SDS011;55066;51.560;4.642;2024-01-30T06:39:53;15.97;;;5.93;;
68250;SDS011;55066;51.560;4.642;2024-01-30T06:42:19;15.48;;;5.65;;
68250;SDS011;55066;51.560;4.642;2024-01-30T06:44:45;18.73;;;6.03;;
68250;SDS011;55066;51.560;4.642;2024-01-30T06:47:10;14.53;;;5.17;;
68250;SDS011;55066;51.560;4.642;2024-01-30T06:49:36;12.43;;;5.07;;
68250;SDS011;55066;51.560;4.642;2024-01-30T06:52:07;12.00;;;4.97;;
68250;SDS011;55066;51.560;4.642;2024-01-30T06:54:33;11.32;;;5.50;;
68250;SDS011;55066;51.560;4.642;2024-01-30T06:56:59;13.23;;;5.47;;
68250;SDS011;55066;51.560;4.642;2024-01-30T06:59:25;13.13;;;5.22;;
68250;SDS011;55066;51.560;4.642;2024-01-30T07:01:51;13.10;;;4.67;;
68250;SDS011;55066;51.560;4.642;2024-01-30T07:04:16;18.05;;;5.40;;
68250;SDS011;55066;51.560;4.642;2024-01-30T07:06:43;12.95;;;5.25;;
68250;SDS011;55066;51.560;4.642;2024-01-30T07:09:08;13.70;;;4.97;;
68250;SDS011;55066;51.560;4.642;2024-01-30T07:11:34;14.80;;;5.37;;
68250;SDS011;55066;51.560;4.642;2024-01-30T07:13:59;13.43;;;5.27;;
68250;SDS011;55066;51.560;4.642;2024-01-30T07:16:25;12.63;;;4.97;;
68250;SDS011;55066;51.560;4.642;2024-01-30T07:18:51;11.60;;;5.22;;
68250;SDS011;55066;51.560;4.642;2024-01-30T07:21:16;11.43;;;4.73;;
68250;SDS011;55066;51.560;4.642;2024-01-30T07:23:42;12.20;;;5.35;;
68250;SDS011;55066;51.560;4.642;2024-01-30T07:26:08;11.82;;;4.82;;
68250;SDS011;55066;51.560;4.642;2024-01-30T07:28:34;11.90;;;5.40;;
68250;SDS011;55066;51.560;4.642;2024-01-30T07:31:00;17.00;;;5.50;;
68250;SDS011;55066;51.560;4.642;2024-01-30T07:33:26;12.43;;;5.07;;
68250;SDS011;55066;51.560;4.642;2024-01-30T07:35:54;14.30;;;5.07;;
68250;SDS011;55066;51.560;4.642;2024-01-30T07:38:20;16.75;;;5.65;;
68250;SDS011;55066;51.560;4.642;2024-01-30T07:40:46;17.27;;;5.40;;
68250;SDS011;55066;51.560;4.642;2024-01-30T07:43:13;19.10;;;5.68;;
68250;SDS011;55066;51.560;4.642;2024-01-30T07:45:39;16.63;;;5.50;;
68250;SDS011;55066;51.560;4.642;2024-01-30T07:48:05;16.27;;;4.90;;
68250;SDS011;55066;51.560;4.642;2024-01-30T07:50:30;12.93;;;5.22;;
68250;SDS011;55066;51.560;4.642;2024-01-30T07:52:56;14.00;;;5.50;;
68250;SDS011;55066;51.560;4.642;2024-01-30T07:55:22;17.42;;;5.78;;
68250;SDS011;55066;51.560;4.642;2024-01-30T07:57:52;12.83;;;5.13;;
68250;SDS011;55066;51.560;4.642;2024-01-30T08:00:21;15.52;;;5.85;;
68250;SDS011;55066;51.560;4.642;2024-01-30T08:02:53;15.13;;;5.88;;
68250;SDS011;55066;51.560;4.642;2024-01-30T08:05:20;14.07;;;6.13;;
68250;SDS011;55066;51.560;4.642;2024-01-30T08:07:47;12.38;;;5.28;;
68250;SDS011;55066;51.560;4.642;2024-01-30T08:10:13;13.03;;;5.33;;
68250;SDS011;55066;51.560;4.642;2024-01-30T08:12:39;14.02;;;5.50;;
68250;SDS011;55066;51.560;4.642;2024-01-30T08:15:05;16.93;;;5.67;;
68250;SDS011;55066;51.560;4.642;2024-01-30T08:17:31;15.73;;;5.78;;
68250;SDS011;55066;51.560;4.642;2024-01-30T08:19:56;16.70;;;5.50;;
68250;SDS011;55066;51.560;4.642;2024-01-30T08:22:22;13.68;;;5.18;;
68250;SDS011;55066;51.560;4.642;2024-01-30T08:24:47;12.60;;;4.93;;
68250;SDS011;55066;51.560;4.642;2024-01-30T08:27:12;13.50;;;5.43;;
68250;SDS011;55066;51.560;4.642;2024-01-30T08:29:38;15.40;;;5.20;;
68250;SDS011;55066;51.560;4.642;2024-01-30T08:32:04;14.60;;;5.50;;
68250;SDS011;55066;51.560;4.642;2024-01-30T08:34:31;15.73;;;5.43;;
68250;SDS011;55066;51.560;4.642;2024-01-30T08:36:56;17.00;;;5.65;;
68250;SDS011;55066;51.560;4.642;2024-01-30T08:39:22;16.20;;;5.80;;
68250;SDS011;55066;51.560;4.642;2024-01-30T08:41:47;16.03;;;5.07;;
68250;SDS011;55066;51.560;4.642;2024-01-30T08:44:13;14.80;;;4.88;;
68250;SDS011;55066;51.560;4.642;2024-01-30T08:46:38;12.87;;;5.60;;
68250;SDS011;55066;51.560;4.642;2024-01-30T08:49:04;12.27;;;5.77;;
68250;SDS011;55066;51.560;4.642;2024-01-30T08:51:30;15.02;;;5.63;;
68250;SDS011;55066;51.560;4.642;2024-01-30T08:53:55;14.90;;;5.60;;
68250;SDS011;55066;51.560;4.642;2024-01-30T08:56:21;18.73;;;5.83;;
68250;SDS011;55066;51.560;4.642;2024-01-30T08:58:46;14.80;;;5.50;;
68250;SDS011;55066;51.560;4.642;2024-01-30T09:01:12;16.67;;;5.93;;
68250;SDS011;55066;51.560;4.642;2024-01-30T09:03:37;13.65;;;5.65;;
68250;SDS011;55066;51.560;4.642;2024-01-30T09:06:08;13.60;;;5.40;;
68250;SDS011;55066;51.560;4.642;2024-01-30T09:08:34;13.80;;;6.18;;
68250;SDS011;55066;51.560;4.642;2024-01-30T09:11:00;16.33;;;6.13;;
68250;SDS011;55066;51.560;4.642;2024-01-30T09:13:25;15.15;;;5.38;;
68250;SDS011;55066;51.560;4.642;2024-01-30T09:15:51;16.13;;;6.00;;
68250;SDS011;55066;51.560;4.642;2024-01-30T09:18:16;15.10;;;5.67;;
68250;SDS011;55066;51.560;4.642;2024-01-30T09:20:42;14.83;;;6.07;;
68250;SDS011;55066;51.560;4.642;2024-01-30T09:23:07;13.15;;;5.95;;
68250;SDS011;55066;51.560;4.642;2024-01-30T09:25:33;13.90;;;5.10;;
68250;SDS011;55066;51.560;4.642;2024-01-30T09:27:59;18.13;;;6.00;;
68250;SDS011;55066;51.560;4.642;2024-01-30T09:30:25;13.75;;;6.35;;
68250;SDS011;55066;51.560;4.642;2024-01-30T09:32:50;12.88;;;5.57;;
68250;SDS011;55066;51.560;4.642;2024-01-30T09:35:16;13.53;;;6.03;;
68250;SDS011;55066;51.560;4.642;2024-01-30T09:37:41;10.63;;;5.13;;
68250;SDS011;55066;51.560;4.642;2024-01-30T09:40:07;12.57;;;6.07;;
68250;SDS011;55066;51.560;4.642;2024-01-30T09:45:00;19.40;;;6.50;;
68250;SDS011;55066;51.560;4.642;2024-01-30T09:47:27;17.58;;;6.47;;
68250;SDS011;55066;51.560;4.642;2024-01-30T09:49:52;15.13;;;6.27;;
68250;SDS011;55066;51.560;4.642;2024-01-30T09:52:18;13.20;;;5.60;;
68250;SDS011;55066;51.560;4.642;2024-01-30T09:54:44;16.30;;;6.07;;
68250;SDS011;55066;51.560;4.642;2024-01-30T09:57:11;15.77;;;6.38;;
68250;SDS011;55066;51.560;4.642;2024-01-30T09:59:37;12.30;;;5.93;;
68250;SDS011;55066;51.560;4.642;2024-01-30T10:02:02;14.07;;;5.57;;
68250;SDS011;55066;51.560;4.642;2024-01-30T10:04:29;13.23;;;6.00;;
68250;SDS011;55066;51.560;4.642;2024-01-30T10:06:55;12.95;;;5.07;;
68250;SDS011;55066;51.560;4.642;2024-01-30T10:09:21;14.93;;;5.60;;
68250;SDS011;55066;51.560;4.642;2024-01-30T10:11:48;12.73;;;5.37;;
68250;SDS011;55066;51.560;4.642;2024-01-30T10:14:13;12.00;;;4.82;;
68250;SDS011;55066;51.560;4.642;2024-01-30T10:16:40;13.82;;;5.55;;
68250;SDS011;55066;51.560;4.642;2024-01-30T10:19:06;14.20;;;5.00;;
68250;SDS011;55066;51.560;4.642;2024-01-30T10:21:31;11.13;;;4.63;;
68250;SDS011;55066;51.560;4.642;2024-01-30T10:23:56;13.13;;;4.53;;
68250;SDS011;55066;51.560;4.642;2024-01-30T10:26:22;10.93;;;4.40;;
68250;SDS011;55066;51.560;4.642;2024-01-30T10:28:48;12.17;;;4.33;;
68250;SDS011;55066;51.560;4.642;2024-01-30T10:31:17;11.05;;;4.45;;
68250;SDS011;55066;51.560;4.642;2024-01-30T10:33:44;10.27;;;4.28;;
68250;SDS011;55066;51.560;4.642;2024-01-30T10:36:10;12.23;;;5.60;;
68250;SDS011;55066;51.560;4.642;2024-01-30T10:38:41;8.57;;;4.10;;
68250;SDS011;55066;51.560;4.642;2024-01-30T10:41:07;13.93;;;4.40;;
68250;SDS011;55066;51.560;4.642;2024-01-30T10:43:38;6.18;;;3.10;;
68250;SDS011;55066;51.560;4.642;2024-01-30T10:48:36;6.95;;;2.80;;
68250;SDS011;55066;51.560;4.642;2024-01-30T10:51:07;4.63;;;1.42;;
68250;SDS011;55066;51.560;4.642;2024-01-30T10:53:34;5.03;;;1.58;;
68250;SDS011;55066;51.560;4.642;2024-01-30T10:56:01;4.78;;;1.35;;
68250;SDS011;55066;51.560;4.642;2024-01-30T10:58:28;2.65;;;1.05;;
68250;SDS011;55066;51.560;4.642;2024-01-30T11:00:54;3.03;;;1.10;;
68250;SDS011;55066;51.560;4.642;2024-01-30T11:03:20;3.33;;;1.10;;
68250;SDS011;55066;51.560;4.642;2024-01-30T11:05:49;4.13;;;1.20;;
68250;SDS011;55066;51.560;4.642;2024-01-30T11:08:22;4.32;;;0.90;;
68250;SDS011;55066;51.560;4.642;2024-01-30T11:10:49;3.70;;;1.20;;
68250;SDS011;55066;51.560;4.642;2024-01-30T11:13:15;3.70;;;1.05;;
68250;SDS011;55066;51.560;4.642;2024-01-30T11:15:41;4.23;;;1.10;;
68250;SDS011;55066;51.560;4.642;2024-01-30T11:18:06;3.13;;;0.85;;
68250;SDS011;55066;51.560;4.642;2024-01-30T11:20:32;6.30;;;0.90;;
68250;SDS011;55066;51.560;4.642;2024-01-30T11:22:58;2.85;;;0.80;;
68250;SDS011;55066;51.560;4.642;2024-01-30T11:25:25;2.40;;;0.70;;
68250;SDS011;55066;51.560;4.642;2024-01-30T11:27:54;6.13;;;0.70;;
68250;SDS011;55066;51.560;4.642;2024-01-30T11:30:30;2.65;;;0.70;;
68250;SDS011;55066;51.560;4.642;2024-01-30T11:33:00;1.83;;;0.63;;
68250;SDS011;55066;51.560;4.642;2024-01-30T11:35:31;3.95;;;0.70;;
68250;SDS011;55066;51.560;4.642;2024-01-30T11:37:58;2.30;;;0.60;;
68250;SDS011;55066;51.560;4.642;2024-01-30T11:40:30;3.90;;;1.00;;
68250;SDS011;55066;51.560;4.642;2024-01-30T11:42:58;2.10;;;0.88;;
68250;SDS011;55066;51.560;4.642;2024-01-30T11:45:24;2.05;;;0.60;;
68250;SDS011;55066;51.560;4.642;2024-01-30T11:47:49;1.70;;;0.43;;
68250;SDS011;55066;51.560;4.642;2024-01-30T11:50:15;1.83;;;0.60;;
68250;SDS011;55066;51.560;4.642;2024-01-30T11:52:41;4.05;;;0.55;;
68250;SDS011;55066;51.560;4.642;2024-01-30T11:55:08;2.17;;;0.70;;
68250;SDS011;55066;51.560;4.642;2024-01-30T11:57:35;2.78;;;0.40;;
68250;SDS011;55066;51.560;4.642;2024-01-30T12:00:05;4.75;;;0.65;;
68250;SDS011;55066;51.560;4.642;2024-01-30T12:02:38;1.95;;;0.40;;
68250;SDS011;55066;51.560;4.642;2024-01-30T12:05:08;3.10;;;0.65;;
68250;SDS011;55066;51.560;4.642;2024-01-30T12:07:36;6.97;;;0.90;;
68250;SDS011;55066;51.560;4.642;2024-01-30T12:10:02;1.90;;;0.63;;
68250;SDS011;55066;51.560;4.642;2024-01-30T12:12:28;4.53;;;0.77;;
68250;SDS011;55066;51.560;4.642;2024-01-30T12:14:55;2.25;;;0.60;;
68250;SDS011;55066;51.560;4.642;2024-01-30T12:20:04;1.75;;;0.52;;
68250;SDS011;55066;51.560;4.642;2024-01-30T12:22:29;3.97;;;0.50;;
68250;SDS011;55066;51.560;4.642;2024-01-30T12:24:55;2.30;;;0.45;;
68250;SDS011;55066;51.560;4.642;2024-01-30T12:27:20;2.43;;;0.80;;
68250;SDS011;55066;51.560;4.642;2024-01-30T12:29:46;1.13;;;0.40;;
68250;SDS011;55066;51.560;4.642;2024-01-30T12:32:15;4.20;;;0.80;;
68250;SDS011;55066;51.560;4.642;2024-01-30T12:34:41;5.03;;;1.00;;
68250;SDS011;55066;51.560;4.642;2024-01-30T12:37:07;3.13;;;0.50;;
68250;SDS011;55066;51.560;4.642;2024-01-30T12:39:34;2.03;;;0.50;;
68250;SDS011;55066;51.560;4.642;2024-01-30T12:42:00;2.63;;;1.15;;
68250;SDS011;55066;51.560;4.642;2024-01-30T12:44:26;5.90;;;1.43;;
68250;SDS011;55066;51.560;4.642;2024-01-30T12:46:51;3.97;;;1.55;;
68250;SDS011;55066;51.560;4.642;2024-01-30T12:49:17;6.73;;;2.27;;
68250;SDS011;55066;51.560;4.642;2024-01-30T12:51:43;9.75;;;2.00;;
68250;SDS011;55066;51.560;4.642;2024-01-30T12:54:12;8.32;;;2.10;;
68250;SDS011;55066;51.560;4.642;2024-01-30T12:56:38;6.63;;;1.80;;
68250;SDS011;55066;51.560;4.642;2024-01-30T12:59:05;8.88;;;1.92;;
68250;SDS011;55066;51.560;4.642;2024-01-30T13:01:30;4.23;;;1.43;;
68250;SDS011;55066;51.560;4.642;2024-01-30T13:03:57;5.72;;;1.67;;
68250;SDS011;55066;51.560;4.642;2024-01-30T13:06:24;8.02;;;2.00;;
68250;SDS011;55066;51.560;4.642;2024-01-30T13:08:51;5.90;;;1.60;;
68250;SDS011;55066;51.560;4.642;2024-01-30T13:11:18;12.60;;;1.67;;
68250;SDS011;55066;51.560;4.642;2024-01-30T13:13:44;7.90;;;1.97;;
68250;SDS011;55066;51.560;4.642;2024-01-30T13:16:09;3.25;;;1.20;;
68250;SDS011;55066;51.560;4.642;2024-01-30T13:18:34;8.30;;;2.10;;
68250;SDS011;55066;51.560;4.642;2024-01-30T13:21:00;6.47;;;1.70;;
68250;SDS011;55066;51.560;4.642;2024-01-30T13:23:25;18.60;;;1.83;;
68250;SDS011;55066;51.560;4.642;2024-01-30T13:25:51;8.57;;;1.95;;
68250;SDS011;55066;51.560;4.642;2024-01-30T13:28:16;3.53;;;1.33;;
68250;SDS011;55066;51.560;4.642;2024-01-30T13:30:42;4.90;;;1.50;;
68250;SDS011;55066;51.560;4.642;2024-01-30T13:33:07;7.37;;;1.50;;
68250;SDS011;55066;51.560;4.642;2024-01-30T13:35:33;5.90;;;1.30;;
68250;SDS011;55066;51.560;4.642;2024-01-30T13:37:58;4.50;;;1.93;;
68250;SDS011;55066;51.560;4.642;2024-01-30T13:40:24;8.03;;;1.90;;
68250;SDS011;55066;51.560;4.642;2024-01-30T13:42:49;8.82;;;2.00;;
68250;SDS011;55066;51.560;4.642;2024-01-30T13:45:15;7.53;;;2.27;;
68250;SDS011;55066;51.560;4.642;2024-01-30T13:47:40;7.63;;;1.80;;
68250;SDS011;55066;51.560;4.642;2024-01-30T13:50:06;8.60;;;2.47;;
68250;SDS011;55066;51.560;4.642;2024-01-30T13:52:33;6.75;;;2.55;;
68250;SDS011;55066;51.560;4.642;2024-01-30T13:54:58;8.68;;;2.30;;
68250;SDS011;55066;51.560;4.642;2024-01-30T13:57:26;6.25;;;2.50;;
68250;SDS011;55066;51.560;4.642;2024-01-30T13:59:54;6.43;;;2.22;;
68250;SDS011;55066;51.560;4.642;2024-01-30T14:02:19;5.63;;;2.05;;
68250;SDS011;55066;51.560;4.642;2024-01-30T14:04:45;4.60;;;1.80;;
68250;SDS011;55066;51.560;4.642;2024-01-30T14:07:11;7.73;;;2.03;;
68250;SDS011;55066;51.560;4.642;2024-01-30T14:09:36;5.70;;;1.70;;
68250;SDS011;55066;51.560;4.642;2024-01-30T14:12:01;4.25;;;1.60;;
68250;SDS011;55066;51.560;4.642;2024-01-30T14:14:27;9.95;;;1.83;;
68250;SDS011;55066;51.560;4.642;2024-01-30T14:16:52;7.07;;;2.23;;
68250;SDS011;55066;51.560;4.642;2024-01-30T14:19:18;6.00;;;2.00;;
68250;SDS011;55066;51.560;4.642;2024-01-30T14:21:43;7.40;;;2.07;;
68250;SDS011;55066;51.560;4.642;2024-01-30T14:24:09;7.05;;;2.10;;
68250;SDS011;55066;51.560;4.642;2024-01-30T14:26:34;5.80;;;2.07;;
68250;SDS011;55066;51.560;4.642;2024-01-30T14:29:00;7.57;;;2.73;;
68250;SDS011;55066;51.560;4.642;2024-01-30T14:31:25;7.35;;;2.47;;
68250;SDS011;55066;51.560;4.642;2024-01-30T14:33:51;5.97;;;2.83;;
68250;SDS011;55066;51.560;4.642;2024-01-30T14:36:16;6.70;;;2.07;;
68250;SDS011;55066;51.560;4.642;2024-01-30T14:38:42;4.00;;;1.77;;